sensor_id;sensor_type;location;lat;lon;timestamp;temperature;humidity
52435;DHT22;38354;52.892;6.148;2023-04-21T03:01:25;8.60;99.90
52435;DHT22;38354;52.892;6.148;2023-04-21T03:03:51;8.60;99.90
52435;DHT22;38354;52.892;6.148;2023-04-21T03:06:16;8.60;99.90
52435;DHT22;38354;52.892;6.148;2023-04-21T03:08:42;8.60;99.90
52435;DHT22;38354;52.892;6.148;2023-04-21T03:11:08;8.60;99.90
52435;DHT22;38354;52.892;6.148;2023-04-21T03:13:33;8.50;99.90
52435;DHT22;38354;52.892;6.148;2023-04-21T03:15:59;8.50;99.90
52435;DHT22;38354;52.892;6.148;2023-04-21T03:18:25;8.50;99.90
52435;DHT22;38354;52.892;6.148;2023-04-21T03:20:51;8.50;99.90
52435;DHT22;38354;52.892;6.148;2023-04-21T03:23:16;8.60;99.90
52435;DHT22;38354;52.892;6.148;2023-04-21T03:25:42;8.60;99.90
52435;DHT22;38354;52.892;6.148;2023-04-21T03:28:08;8.70;99.90
52435;DHT22;38354;52.892;6.148;2023-04-21T03:30:34;8.70;99.90
52435;DHT22;38354;52.892;6.148;2023-04-21T03:32:59;8.70;99.90
52435;DHT22;38354;52.892;6.148;2023-04-21T03:35:25;8.80;99.90
52435;DHT22;38354;52.892;6.148;2023-04-21T03:37:51;8.80;99.90
52435;DHT22;38354;52.892;6.148;2023-04-21T03:40:17;8.80;99.90
52435;DHT22;38354;52.892;6.148;2023-04-21T03:42:42;8.80;99.90
52435;DHT22;38354;52.892;6.148;2023-04-21T03:45:08;8.90;99.90
52435;DHT22;38354;52.892;6.148;2023-04-21T03:47:35;8.90;99.90
52435;DHT22;38354;52.892;6.148;2023-04-21T03:50:04;8.90;99.90
52435;DHT22;38354;52.892;6.148;2023-04-21T03:52:30;8.90;99.90
52435;DHT22;38354;52.892;6.148;2023-04-21T03:54:56;8.90;99.90
52435;DHT22;38354;52.892;6.148;2023-04-21T03:57:22;8.90;99.90
52435;DHT22;38354;52.892;6.148;2023-04-21T03:59:47;8.90;99.90
52435;DHT22;38354;52.892;6.148;2023-04-21T04:02:13;9.00;99.90
52435;DHT22;38354;52.892;6.148;2023-04-21T04:04:39;8.90;99.90
52435;DHT22;38354;52.892;6.148;2023-04-21T04:07:04;8.90;99.90
52435;DHT22;38354;52.892;6.148;2023-04-21T04:09:32;8.90;99.90
52435;DHT22;38354;52.892;6.148;2023-04-21T04:11:57;8.90;99.90
52435;DHT22;38354;52.892;6.148;2023-04-21T04:14:23;8.90;99.90
52435;DHT22;38354;52.892;6.148;2023-04-21T04:16:48;8.90;99.90
52435;DHT22;38354;52.892;6.148;2023-04-21T04:19:14;9.00;99.90
52435;DHT22;38354;52.892;6.148;2023-04-21T04:21:40;9.00;99.90
52435;DHT22;38354;52.892;6.148;2023-04-21T04:24:06;9.00;99.90
52435;DHT22;38354;52.892;6.148;2023-04-21T04:26:32;9.00;99.90
52435;DHT22;38354;52.892;6.148;2023-04-21T04:28:59;9.00;99.90
52435;DHT22;38354;52.892;6.148;2023-04-21T04:31:29;8.90;99.90
52435;DHT22;38354;52.892;6.148;2023-04-21T04:33:55;8.90;99.90
52435;DHT22;38354;52.892;6.148;2023-04-21T04:36:21;8.90;99.90
52435;DHT22;38354;52.892;6.148;2023-04-21T04:38:48;8.90;99.90
52435;DHT22;38354;52.892;6.148;2023-04-21T04:41:13;8.90;99.90
52435;DHT22;38354;52.892;6.148;2023-04-21T04:43:41;8.90;99.90
52435;DHT22;38354;52.892;6.148;2023-04-21T04:46:07;8.80;99.90
52435;DHT22;38354;52.892;6.148;2023-04-21T04:48:33;8.80;99.90
52435;DHT22;38354;52.892;6.148;2023-04-21T04:50:59;8.80;99.90
52435;DHT22;38354;52.892;6.148;2023-04-21T04:53:27;8.80;99.90
52435;DHT22;38354;52.892;6.148;2023-04-21T04:55:52;8.80;99.90
52435;DHT22;38354;52.892;6.148;2023-04-21T04:58:18;8.80;99.90
52435;DHT22;38354;52.892;6.148;2023-04-21T05:00:44;8.80;99.90
52435;DHT22;38354;52.892;6.148;2023-04-21T05:03:10;8.80;99.90
52435;DHT22;38354;52.892;6.148;2023-04-21T05:05:35;8.70;99.90
52435;DHT22;38354;52.892;6.148;2023-04-21T05:08:01;8.80;99.90
52435;DHT22;38354;52.892;6.148;2023-04-21T05:10:27;8.70;99.90
52435;DHT22;38354;52.892;6.148;2023-04-21T05:12:52;8.80;99.90
52435;DHT22;38354;52.892;6.148;2023-04-21T05:15:18;8.70;99.90
52435;DHT22;38354;52.892;6.148;2023-04-21T05:17:43;8.80;99.90
52435;DHT22;38354;52.892;6.148;2023-04-21T05:20:09;8.80;99.90
52435;DHT22;38354;52.892;6.148;2023-04-21T05:22:37;8.80;99.90
52435;DHT22;38354;52.892;6.148;2023-04-21T05:25:03;8.80;99.90
52435;DHT22;38354;52.892;6.148;2023-04-21T05:27:29;8.80;99.90
52435;DHT22;38354;52.892;6.148;2023-04-21T05:29:55;8.90;99.90
52435;DHT22;38354;52.892;6.148;2023-04-21T05:32:20;8.90;99.90
52435;DHT22;38354;52.892;6.148;2023-04-21T05:34:46;8.90;99.90
52435;DHT22;38354;52.892;6.148;2023-04-21T05:37:12;8.90;99.90
52435;DHT22;38354;52.892;6.148;2023-04-21T05:39:37;9.00;99.90
52435;DHT22;38354;52.892;6.148;2023-04-21T05:42:03;9.00;99.90
52435;DHT22;38354;52.892;6.148;2023-04-21T05:44:29;9.00;99.90
52435;DHT22;38354;52.892;6.148;2023-04-21T05:46:54;9.00;99.90
52435;DHT22;38354;52.892;6.148;2023-04-21T05:49:20;9.10;99.90
52435;DHT22;38354;52.892;6.148;2023-04-21T05:51:45;9.10;99.90
52435;DHT22;38354;52.892;6.148;2023-04-21T05:54:11;9.10;99.90
52435;DHT22;38354;52.892;6.148;2023-04-21T05:56:37;9.20;99.90
52435;DHT22;38354;52.892;6.148;2023-04-21T05:59:03;9.20;99.90
52435;DHT22;38354;52.892;6.148;2023-04-21T06:01:28;9.20;99.90
52435;DHT22;38354;52.892;6.148;2023-04-21T06:03:54;9.20;99.90
52435;DHT22;38354;52.892;6.148;2023-04-21T06:06:20;9.30;99.90
52435;DHT22;38354;52.892;6.148;2023-04-21T06:08:45;9.30;99.90
52435;DHT22;38354;52.892;6.148;2023-04-21T06:11:11;9.40;99.90
52435;DHT22;38354;52.892;6.148;2023-04-21T06:13:36;9.40;99.90
52435;DHT22;38354;52.892;6.148;2023-04-21T06:16:03;9.40;99.90
52435;DHT22;38354;52.892;6.148;2023-04-21T06:18:28;9.40;99.90
52435;DHT22;38354;52.892;6.148;2023-04-21T06:20:55;9.50;99.90
52435;DHT22;38354;52.892;6.148;2023-04-21T06:23:21;9.60;99.90
52435;DHT22;38354;52.892;6.148;2023-04-21T06:25:57;9.60;99.90
52435;DHT22;38354;52.892;6.148;2023-04-21T06:28:23;9.70;99.90
52435;DHT22;38354;52.892;6.148;2023-04-21T06:30:49;9.70;99.90
52435;DHT22;38354;52.892;6.148;2023-04-21T06:33:14;9.80;99.90
52435;DHT22;38354;52.892;6.148;2023-04-21T06:35:40;9.90;99.90
52435;DHT22;38354;52.892;6.148;2023-04-21T06:38:07;10.00;99.90
52435;DHT22;38354;52.892;6.148;2023-04-21T06:40:33;10.00;99.90
52435;DHT22;38354;52.892;6.148;2023-04-21T06:42:59;10.10;99.90
52435;DHT22;38354;52.892;6.148;2023-04-21T06:45:24;10.20;99.90
52435;DHT22;38354;52.892;6.148;2023-04-21T06:47:50;10.20;99.90
52435;DHT22;38354;52.892;6.148;2023-04-21T06:50:16;10.30;99.90
52435;DHT22;38354;52.892;6.148;2023-04-21T06:52:41;10.40;99.90
52435;DHT22;38354;52.892;6.148;2023-04-21T06:55:07;10.50;99.90
52435;DHT22;38354;52.892;6.148;2023-04-21T06:57:33;10.60;99.90
52435;DHT22;38354;52.892;6.148;2023-04-21T06:59:59;10.70;99.90
52435;DHT22;38354;52.892;6.148;2023-04-21T07:02:24;10.80;99.90
52435;DHT22;38354;52.892;6.148;2023-04-21T07:04:50;10.80;99.90
52435;DHT22;38354;52.892;6.148;2023-04-21T07:07:16;10.90;99.90
52435;DHT22;38354;52.892;6.148;2023-04-21T07:09:41;10.90;99.90
52435;DHT22;38354;52.892;6.148;2023-04-21T07:12:07;11.00;99.90
52435;DHT22;38354;52.892;6.148;2023-04-21T07:14:33;11.00;99.90
52435;DHT22;38354;52.892;6.148;2023-04-21T07:16:58;11.10;99.90
52435;DHT22;38354;52.892;6.148;2023-04-21T07:19:24;11.10;99.90
52435;DHT22;38354;52.892;6.148;2023-04-21T07:21:50;11.10;99.90
52435;DHT22;38354;52.892;6.148;2023-04-21T07:24:15;11.10;99.90
52435;DHT22;38354;52.892;6.148;2023-04-21T07:26:41;11.10;99.90
52435;DHT22;38354;52.892;6.148;2023-04-21T07:29:07;11.10;99.90
52435;DHT22;38354;52.892;6.148;2023-04-21T07:31:32;11.10;99.90
52435;DHT22;38354;52.892;6.148;2023-04-21T07:33:58;11.20;99.90
52435;DHT22;38354;52.892;6.148;2023-04-21T07:36:24;11.20;99.90
52435;DHT22;38354;52.892;6.148;2023-04-21T07:38:50;11.30;99.90
52435;DHT22;38354;52.892;6.148;2023-04-21T07:41:16;11.40;99.90
52435;DHT22;38354;52.892;6.148;2023-04-21T07:43:41;11.50;99.90
52435;DHT22;38354;52.892;6.148;2023-04-21T07:46:07;11.50;99.90
52435;DHT22;38354;52.892;6.148;2023-04-21T07:48:33;11.60;99.90
52435;DHT22;38354;52.892;6.148;2023-04-21T07:50:58;11.70;99.90
52435;DHT22;38354;52.892;6.148;2023-04-21T07:53:27;11.70;99.90
52435;DHT22;38354;52.892;6.148;2023-04-21T07:55:53;11.80;99.90
52435;DHT22;38354;52.892;6.148;2023-04-21T07:58:20;11.90;99.90
52435;DHT22;38354;52.892;6.148;2023-04-21T08:00:45;12.00;99.90
52435;DHT22;38354;52.892;6.148;2023-04-21T08:03:11;12.10;99.90
52435;DHT22;38354;52.892;6.148;2023-04-21T08:05:37;12.10;99.90
52435;DHT22;38354;52.892;6.148;2023-04-21T08:08:02;12.30;99.90
52435;DHT22;38354;52.892;6.148;2023-04-21T08:10:28;12.30;99.90
52435;DHT22;38354;52.892;6.148;2023-04-21T08:12:54;12.40;99.90
52435;DHT22;38354;52.892;6.148;2023-04-21T08:15:20;12.40;99.90
52435;DHT22;38354;52.892;6.148;2023-04-21T08:17:46;12.50;99.90
52435;DHT22;38354;52.892;6.148;2023-04-21T08:20:12;12.50;99.90
52435;DHT22;38354;52.892;6.148;2023-04-21T08:22:38;12.60;99.90
52435;DHT22;38354;52.892;6.148;2023-04-21T08:25:04;12.70;99.90
52435;DHT22;38354;52.892;6.148;2023-04-21T08:27:30;12.80;99.90
52435;DHT22;38354;52.892;6.148;2023-04-21T08:29:56;12.80;99.90
52435;DHT22;38354;52.892;6.148;2023-04-21T08:32:22;12.90;99.90
52435;DHT22;38354;52.892;6.148;2023-04-21T08:34:53;13.00;99.90
52435;DHT22;38354;52.892;6.148;2023-04-21T08:37:19;13.10;99.90
52435;DHT22;38354;52.892;6.148;2023-04-21T08:39:45;13.20;99.90
52435;DHT22;38354;52.892;6.148;2023-04-21T08:42:18;13.20;99.90
52435;DHT22;38354;52.892;6.148;2023-04-21T08:44:44;13.40;99.90
52435;DHT22;38354;52.892;6.148;2023-04-21T08:47:11;13.50;99.90
52435;DHT22;38354;52.892;6.148;2023-04-21T08:49:38;13.70;99.90
52435;DHT22;38354;52.892;6.148;2023-04-21T08:52:04;13.90;99.90
52435;DHT22;38354;52.892;6.148;2023-04-21T08:54:31;14.10;99.90
52435;DHT22;38354;52.892;6.148;2023-04-21T08:56:57;14.20;99.90
52435;DHT22;38354;52.892;6.148;2023-04-21T08:59:23;14.40;99.90
52435;DHT22;38354;52.892;6.148;2023-04-21T09:04:36;14.70;99.90
52435;DHT22;38354;52.892;6.148;2023-04-21T09:07:02;14.70;99.90
52435;DHT22;38354;52.892;6.148;2023-04-21T09:09:27;14.90;99.90
52435;DHT22;38354;52.892;6.148;2023-04-21T09:11:54;15.00;99.90
52435;DHT22;38354;52.892;6.148;2023-04-21T09:14:21;15.10;99.90
52435;DHT22;38354;52.892;6.148;2023-04-21T09:17:01;15.20;99.90
52435;DHT22;38354;52.892;6.148;2023-04-21T09:19:28;15.30;99.90
52435;DHT22;38354;52.892;6.148;2023-04-21T09:21:54;15.40;99.90
52435;DHT22;38354;52.892;6.148;2023-04-21T09:24:19;15.60;99.90
52435;DHT22;38354;52.892;6.148;2023-04-21T09:26:49;15.80;99.90
52435;DHT22;38354;52.892;6.148;2023-04-21T09:29:16;16.10;99.90
52435;DHT22;38354;52.892;6.148;2023-04-21T09:31:43;16.30;99.90
52435;DHT22;38354;52.892;6.148;2023-04-21T09:34:19;16.40;99.90
52435;DHT22;38354;52.892;6.148;2023-04-21T09:36:46;16.40;99.90
52435;DHT22;38354;52.892;6.148;2023-04-21T09:39:12;16.60;99.90
52435;DHT22;38354;52.892;6.148;2023-04-21T09:41:38;16.90;99.90
52435;DHT22;38354;52.892;6.148;2023-04-21T09:44:04;17.10;99.90
52435;DHT22;38354;52.892;6.148;2023-04-21T09:46:32;17.20;99.90
52435;DHT22;38354;52.892;6.148;2023-04-21T09:49:02;17.20;99.90
52435;DHT22;38354;52.892;6.148;2023-04-21T09:51:29;17.10;99.90
52435;DHT22;38354;52.892;6.148;2023-04-21T09:54:02;17.40;99.90
52435;DHT22;38354;52.892;6.148;2023-04-21T09:56:32;18.00;99.90
52435;DHT22;38354;52.892;6.148;2023-04-21T09:59:00;18.70;99.90
52435;DHT22;38354;52.892;6.148;2023-04-21T10:01:30;19.20;99.90
52435;DHT22;38354;52.892;6.148;2023-04-21T10:03:56;19.50;99.90
52435;DHT22;38354;52.892;6.148;2023-04-21T10:06:23;19.30;99.90
52435;DHT22;38354;52.892;6.148;2023-04-21T10:08:48;18.80;99.90
52435;DHT22;38354;52.892;6.148;2023-04-21T10:11:15;18.60;99.90
52435;DHT22;38354;52.892;6.148;2023-04-21T10:13:42;18.80;99.90
52435;DHT22;38354;52.892;6.148;2023-04-21T10:16:08;19.00;99.90
52435;DHT22;38354;52.892;6.148;2023-04-21T10:18:41;19.10;99.90
52435;DHT22;38354;52.892;6.148;2023-04-21T10:21:09;19.20;99.90
52435;DHT22;38354;52.892;6.148;2023-04-21T10:23:45;18.90;99.90
52435;DHT22;38354;52.892;6.148;2023-04-21T10:29:04;18.50;99.90
52435;DHT22;38354;52.892;6.148;2023-04-21T10:31:35;18.20;99.90
52435;DHT22;38354;52.892;6.148;2023-04-21T10:36:30;18.40;99.90
52435;DHT22;38354;52.892;6.148;2023-04-21T10:39:00;18.50;99.90
52435;DHT22;38354;52.892;6.148;2023-04-21T10:41:29;18.40;99.90
52435;DHT22;38354;52.892;6.148;2023-04-21T10:44:14;18.20;99.90
52435;DHT22;38354;52.892;6.148;2023-04-21T10:46:49;18.00;99.90
52435;DHT22;38354;52.892;6.148;2023-04-21T10:49:23;17.80;99.90
52435;DHT22;38354;52.892;6.148;2023-04-21T10:56:54;17.60;99.90
52435;DHT22;38354;52.892;6.148;2023-04-21T10:59:21;17.70;99.90
52435;DHT22;38354;52.892;6.148;2023-04-21T11:01:47;17.80;99.90
52435;DHT22;38354;52.892;6.148;2023-04-21T11:04:16;17.90;99.90
52435;DHT22;38354;52.892;6.148;2023-04-21T11:06:43;17.90;99.90
52435;DHT22;38354;52.892;6.148;2023-04-21T11:09:08;17.80;99.90
52435;DHT22;38354;52.892;6.148;2023-04-21T11:11:35;17.90;99.90
52435;DHT22;38354;52.892;6.148;2023-04-21T11:14:01;18.00;99.90
52435;DHT22;38354;52.892;6.148;2023-04-21T11:16:27;18.00;99.90
52435;DHT22;38354;52.892;6.148;2023-04-21T11:18:55;18.00;99.90
52435;DHT22;38354;52.892;6.148;2023-04-21T11:21:21;18.00;99.90
52435;DHT22;38354;52.892;6.148;2023-04-21T11:26:16;18.00;99.90
52435;DHT22;38354;52.892;6.148;2023-04-21T11:28:42;18.10;99.90
52435;DHT22;38354;52.892;6.148;2023-04-21T11:31:08;18.30;99.90
52435;DHT22;38354;52.892;6.148;2023-04-21T11:33:37;18.40;99.90
52435;DHT22;38354;52.892;6.148;2023-04-21T11:36:06;18.30;99.90
52435;DHT22;38354;52.892;6.148;2023-04-21T11:38:37;18.10;99.90
52435;DHT22;38354;52.892;6.148;2023-04-21T11:41:03;18.10;99.90
52435;DHT22;38354;52.892;6.148;2023-04-21T11:43:29;18.30;99.90
52435;DHT22;38354;52.892;6.148;2023-04-21T11:46:09;18.50;99.90
52435;DHT22;38354;52.892;6.148;2023-04-21T11:48:35;18.70;99.90
52435;DHT22;38354;52.892;6.148;2023-04-21T11:51:01;18.70;99.90
52435;DHT22;38354;52.892;6.148;2023-04-21T11:53:28;18.60;99.90
52435;DHT22;38354;52.892;6.148;2023-04-21T11:55:54;18.60;99.90
52435;DHT22;38354;52.892;6.148;2023-04-21T11:58:20;18.60;99.90
52435;DHT22;38354;52.892;6.148;2023-04-21T12:00:46;18.50;99.90
52435;DHT22;38354;52.892;6.148;2023-04-21T12:03:12;18.50;99.90
52435;DHT22;38354;52.892;6.148;2023-04-21T12:05:38;18.40;99.90
52435;DHT22;38354;52.892;6.148;2023-04-21T12:08:04;18.30;99.90
52435;DHT22;38354;52.892;6.148;2023-04-21T12:10:31;18.20;99.90
52435;DHT22;38354;52.892;6.148;2023-04-21T12:12:56;18.20;99.90
52435;DHT22;38354;52.892;6.148;2023-04-21T12:15:22;18.20;99.90
52435;DHT22;38354;52.892;6.148;2023-04-21T12:17:51;18.30;99.90
52435;DHT22;38354;52.892;6.148;2023-04-21T12:20:23;18.50;99.90
52435;DHT22;38354;52.892;6.148;2023-04-21T12:22:49;18.60;99.90
52435;DHT22;38354;52.892;6.148;2023-04-21T12:25:15;18.60;99.90
52435;DHT22;38354;52.892;6.148;2023-04-21T12:27:57;18.70;99.90
52435;DHT22;38354;52.892;6.148;2023-04-21T12:30:22;18.80;99.90
52435;DHT22;38354;52.892;6.148;2023-04-21T12:32:48;18.80;99.90
52435;DHT22;38354;52.892;6.148;2023-04-21T12:35:14;18.80;99.90
52435;DHT22;38354;52.892;6.148;2023-04-21T12:37:40;18.80;99.90
52435;DHT22;38354;52.892;6.148;2023-04-21T12:40:06;18.80;99.90
52435;DHT22;38354;52.892;6.148;2023-04-21T12:42:32;18.80;99.90
52435;DHT22;38354;52.892;6.148;2023-04-21T12:44:58;18.60;99.90
52435;DHT22;38354;52.892;6.148;2023-04-21T12:47:23;18.50;99.90
52435;DHT22;38354;52.892;6.148;2023-04-21T12:49:49;18.60;99.90
52435;DHT22;38354;52.892;6.148;2023-04-21T12:52:15;18.60;99.90
52435;DHT22;38354;52.892;6.148;2023-04-21T12:54:40;18.70;99.90
52435;DHT22;38354;52.892;6.148;2023-04-21T12:57:07;18.80;99.90
52435;DHT22;38354;52.892;6.148;2023-04-21T12:59:33;18.80;99.90
52435;DHT22;38354;52.892;6.148;2023-04-21T13:01:58;18.80;99.90
52435;DHT22;38354;52.892;6.148;2023-04-21T13:04:24;19.00;99.90
52435;DHT22;38354;52.892;6.148;2023-04-21T13:06:50;19.10;99.90
52435;DHT22;38354;52.892;6.148;2023-04-21T13:09:16;19.20;99.90
52435;DHT22;38354;52.892;6.148;2023-04-21T13:11:41;19.60;99.90
52435;DHT22;38354;52.892;6.148;2023-04-21T13:14:07;20.00;99.90
52435;DHT22;38354;52.892;6.148;2023-04-21T13:16:33;20.40;99.90
52435;DHT22;38354;52.892;6.148;2023-04-21T13:18:58;20.80;99.90
52435;DHT22;38354;52.892;6.148;2023-04-21T13:21:24;20.80;99.90
52435;DHT22;38354;52.892;6.148;2023-04-21T13:23:50;20.80;99.90
52435;DHT22;38354;52.892;6.148;2023-04-21T13:26:16;20.90;99.90
52435;DHT22;38354;52.892;6.148;2023-04-21T13:28:42;20.90;99.90
52435;DHT22;38354;52.892;6.148;2023-04-21T13:31:07;20.80;99.90
52435;DHT22;38354;52.892;6.148;2023-04-21T13:33:33;20.80;99.90
52435;DHT22;38354;52.892;6.148;2023-04-21T13:36:03;20.70;99.90
52435;DHT22;38354;52.892;6.148;2023-04-21T13:38:29;20.80;99.90
52435;DHT22;38354;52.892;6.148;2023-04-21T13:40:55;20.80;99.90
52435;DHT22;38354;52.892;6.148;2023-04-21T13:43:21;20.60;99.90
52435;DHT22;38354;52.892;6.148;2023-04-21T13:45:47;20.40;99.90
52435;DHT22;38354;52.892;6.148;2023-04-21T13:48:15;20.20;99.90
52435;DHT22;38354;52.892;6.148;2023-04-21T13:50:40;19.90;99.90
52435;DHT22;38354;52.892;6.148;2023-04-21T13:53:06;19.70;99.90
52435;DHT22;38354;52.892;6.148;2023-04-21T13:55:32;19.50;99.90
52435;DHT22;38354;52.892;6.148;2023-04-21T13:57:58;19.40;99.90
52435;DHT22;38354;52.892;6.148;2023-04-21T14:00:25;19.30;99.90
52435;DHT22;38354;52.892;6.148;2023-04-21T14:02:51;19.20;99.90
52435;DHT22;38354;52.892;6.148;2023-04-21T14:05:17;19.20;99.90
52435;DHT22;38354;52.892;6.148;2023-04-21T14:07:43;19.30;99.90
52435;DHT22;38354;52.892;6.148;2023-04-21T14:10:09;19.30;99.90
52435;DHT22;38354;52.892;6.148;2023-04-21T14:12:36;19.50;99.90
52435;DHT22;38354;52.892;6.148;2023-04-21T14:15:02;19.50;99.90
52435;DHT22;38354;52.892;6.148;2023-04-21T14:17:27;19.60;99.90
52435;DHT22;38354;52.892;6.148;2023-04-21T14:19:53;19.70;99.90
52435;DHT22;38354;52.892;6.148;2023-04-21T14:22:19;19.90;99.90
52435;DHT22;38354;52.892;6.148;2023-04-21T14:24:44;20.20;99.90
52435;DHT22;38354;52.892;6.148;2023-04-21T14:27:10;20.20;99.90
52435;DHT22;38354;52.892;6.148;2023-04-21T14:29:36;20.20;99.90
52435;DHT22;38354;52.892;6.148;2023-04-21T14:32:02;20.30;99.90
52435;DHT22;38354;52.892;6.148;2023-04-21T14:34:27;20.60;99.90
52435;DHT22;38354;52.892;6.148;2023-04-21T14:36:53;20.70;99.90
52435;DHT22;38354;52.892;6.148;2023-04-21T14:39:19;20.70;99.90
52435;DHT22;38354;52.892;6.148;2023-04-21T14:41:44;20.60;99.40
52435;DHT22;38354;52.892;6.148;2023-04-21T14:44:10;20.30;98.20
52435;DHT22;38354;52.892;6.148;2023-04-21T14:46:36;20.10;97.60
52435;DHT22;38354;52.892;6.148;2023-04-21T14:49:02;20.10;97.20
52435;DHT22;38354;52.892;6.148;2023-04-21T14:51:28;20.10;97.10
52435;DHT22;38354;52.892;6.148;2023-04-21T14:53:54;20.00;96.90
52435;DHT22;38354;52.892;6.148;2023-04-21T14:56:20;19.90;96.90
52435;DHT22;38354;52.892;6.148;2023-04-21T14:58:46;19.80;96.00
52435;DHT22;38354;52.892;6.148;2023-04-21T15:01:11;19.60;96.10
52435;DHT22;38354;52.892;6.148;2023-04-21T15:03:37;19.60;96.30
52435;DHT22;38354;52.892;6.148;2023-04-21T15:06:03;19.60;96.00
52435;DHT22;38354;52.892;6.148;2023-04-21T15:08:29;19.50;95.60
52435;DHT22;38354;52.892;6.148;2023-04-21T15:10:55;19.50;95.60
52435;DHT22;38354;52.892;6.148;2023-04-21T15:13:21;19.60;95.20
52435;DHT22;38354;52.892;6.148;2023-04-21T15:15:47;19.60;94.90
52435;DHT22;38354;52.892;6.148;2023-04-21T15:18:14;19.60;94.70
52435;DHT22;38354;52.892;6.148;2023-04-21T15:20:40;19.60;94.60
52435;DHT22;38354;52.892;6.148;2023-04-21T15:23:06;19.60;94.30
52435;DHT22;38354;52.892;6.148;2023-04-21T15:25:32;19.50;94.30
52435;DHT22;38354;52.892;6.148;2023-04-21T15:27:58;19.50;94.40
52435;DHT22;38354;52.892;6.148;2023-04-21T15:30:23;19.50;94.20
52435;DHT22;38354;52.892;6.148;2023-04-21T15:32:49;19.40;93.90
52435;DHT22;38354;52.892;6.148;2023-04-21T15:35:15;19.40;94.10
52435;DHT22;38354;52.892;6.148;2023-04-21T15:37:40;19.40;94.00
52435;DHT22;38354;52.892;6.148;2023-04-21T15:40:07;19.40;94.20
52435;DHT22;38354;52.892;6.148;2023-04-21T15:42:33;19.50;94.10
52435;DHT22;38354;52.892;6.148;2023-04-21T15:44:58;19.50;93.90
52435;DHT22;38354;52.892;6.148;2023-04-21T15:47:26;19.50;94.00
52435;DHT22;38354;52.892;6.148;2023-04-21T15:49:52;19.50;94.20
52435;DHT22;38354;52.892;6.148;2023-04-21T15:52:18;19.40;93.90
52435;DHT22;38354;52.892;6.148;2023-04-21T15:54:44;19.40;93.70
52435;DHT22;38354;52.892;6.148;2023-04-21T15:57:10;19.30;93.70
52435;DHT22;38354;52.892;6.148;2023-04-21T15:59:36;19.20;93.50
52435;DHT22;38354;52.892;6.148;2023-04-21T16:02:02;19.10;93.60
52435;DHT22;38354;52.892;6.148;2023-04-21T16:04:28;19.10;93.60
52435;DHT22;38354;52.892;6.148;2023-04-21T16:06:53;19.00;93.70
52435;DHT22;38354;52.892;6.148;2023-04-21T16:09:19;19.00;93.80
52435;DHT22;38354;52.892;6.148;2023-04-21T16:11:46;18.90;93.70
52435;DHT22;38354;52.892;6.148;2023-04-21T16:14:14;18.90;93.70
52435;DHT22;38354;52.892;6.148;2023-04-21T16:16:42;18.90;93.60
52435;DHT22;38354;52.892;6.148;2023-04-21T16:19:07;19.00;93.90
52435;DHT22;38354;52.892;6.148;2023-04-21T16:21:34;19.00;94.20
52435;DHT22;38354;52.892;6.148;2023-04-21T16:24:01;19.10;93.90
52435;DHT22;38354;52.892;6.148;2023-04-21T16:26:26;19.10;93.80
52435;DHT22;38354;52.892;6.148;2023-04-21T16:28:53;19.10;93.70
52435;DHT22;38354;52.892;6.148;2023-04-21T16:31:20;19.20;93.90
52435;DHT22;38354;52.892;6.148;2023-04-21T16:33:46;19.20;93.90
52435;DHT22;38354;52.892;6.148;2023-04-21T16:36:11;19.20;93.90
52435;DHT22;38354;52.892;6.148;2023-04-21T16:38:37;19.10;93.90
52435;DHT22;38354;52.892;6.148;2023-04-21T16:41:02;19.00;94.00
52435;DHT22;38354;52.892;6.148;2023-04-21T16:43:28;18.90;94.10
52435;DHT22;38354;52.892;6.148;2023-04-21T16:45:54;18.80;94.00
52435;DHT22;38354;52.892;6.148;2023-04-21T16:48:19;18.70;93.80
52435;DHT22;38354;52.892;6.148;2023-04-21T16:50:45;18.60;93.70
52435;DHT22;38354;52.892;6.148;2023-04-21T16:53:11;18.50;93.70
52435;DHT22;38354;52.892;6.148;2023-04-21T16:55:36;18.50;93.40
52435;DHT22;38354;52.892;6.148;2023-04-21T16:58:02;18.40;93.50
52435;DHT22;38354;52.892;6.148;2023-04-21T17:00:28;18.40;93.40
52435;DHT22;38354;52.892;6.148;2023-04-21T17:02:55;18.40;93.20
52435;DHT22;38354;52.892;6.148;2023-04-21T17:05:23;18.30;93.70
52435;DHT22;38354;52.892;6.148;2023-04-21T17:07:49;18.30;93.60
52435;DHT22;38354;52.892;6.148;2023-04-21T17:10:15;18.20;95.30
52435;DHT22;38354;52.892;6.148;2023-04-21T17:12:42;17.80;99.90
52435;DHT22;38354;52.892;6.148;2023-04-21T17:15:08;17.50;99.90
52435;DHT22;38354;52.892;6.148;2023-04-21T17:17:39;17.00;99.90
52435;DHT22;38354;52.892;6.148;2023-04-21T17:20:07;16.70;99.90
52435;DHT22;38354;52.892;6.148;2023-04-21T17:22:35;16.40;99.90
52435;DHT22;38354;52.892;6.148;2023-04-21T17:25:02;16.10;99.90
52435;DHT22;38354;52.892;6.148;2023-04-21T17:27:29;15.80;99.90
52435;DHT22;38354;52.892;6.148;2023-04-21T17:29:55;15.60;99.90
52435;DHT22;38354;52.892;6.148;2023-04-21T17:32:21;15.50;99.90
52435;DHT22;38354;52.892;6.148;2023-04-21T17:34:46;15.40;99.90
52435;DHT22;38354;52.892;6.148;2023-04-21T17:37:12;15.30;99.90
52435;DHT22;38354;52.892;6.148;2023-04-21T17:39:38;15.20;99.90
52435;DHT22;38354;52.892;6.148;2023-04-21T17:42:03;15.10;99.90
52435;DHT22;38354;52.892;6.148;2023-04-21T17:44:30;15.10;99.90
52435;DHT22;38354;52.892;6.148;2023-04-21T17:46:56;15.10;99.90
52435;DHT22;38354;52.892;6.148;2023-04-21T17:49:22;15.10;99.90
52435;DHT22;38354;52.892;6.148;2023-04-21T17:51:49;15.10;99.90
52435;DHT22;38354;52.892;6.148;2023-04-21T17:54:15;15.10;99.90
52435;DHT22;38354;52.892;6.148;2023-04-21T17:56:42;15.10;99.90
52435;DHT22;38354;52.892;6.148;2023-04-21T17:59:09;15.10;99.90
52435;DHT22;38354;52.892;6.148;2023-04-21T18:01:35;15.20;99.90
52435;DHT22;38354;52.892;6.148;2023-04-21T18:04:01;15.20;99.90
52435;DHT22;38354;52.892;6.148;2023-04-21T18:06:26;15.30;99.90
52435;DHT22;38354;52.892;6.148;2023-04-21T18:08:53;15.20;99.90
52435;DHT22;38354;52.892;6.148;2023-04-21T18:11:18;15.10;99.90
52435;DHT22;38354;52.892;6.148;2023-04-21T18:13:44;15.10;99.90
52435;DHT22;38354;52.892;6.148;2023-04-21T18:16:10;15.10;99.90
52435;DHT22;38354;52.892;6.148;2023-04-21T18:18:35;15.10;99.90
52435;DHT22;38354;52.892;6.148;2023-04-21T18:21:01;15.00;99.90
52435;DHT22;38354;52.892;6.148;2023-04-21T18:23:27;15.00;99.90
52435;DHT22;38354;52.892;6.148;2023-04-21T18:25:52;15.10;99.90
52435;DHT22;38354;52.892;6.148;2023-04-21T18:28:18;15.10;99.90
52435;DHT22;38354;52.892;6.148;2023-04-21T18:30:44;15.10;99.90
52435;DHT22;38354;52.892;6.148;2023-04-21T18:33:09;15.00;99.90
52435;DHT22;38354;52.892;6.148;2023-04-21T18:35:35;15.00;99.90
52435;DHT22;38354;52.892;6.148;2023-04-21T18:38:01;15.00;99.90
52435;DHT22;38354;52.892;6.148;2023-04-21T18:40:27;15.00;99.90
52435;DHT22;38354;52.892;6.148;2023-04-21T18:42:52;14.90;99.90
52435;DHT22;38354;52.892;6.148;2023-04-21T18:45:18;14.90;99.90